Stations météo

réclame
Mon MeteoGroup
Fehmarnbelt/Grosstonne, Allemagne (10043): Température de l'air & dewpoint: 17.08.2019 15:00:00 - 23.08.2019 15:00:00 (CEST)Fehmarnbelt/Grosstonne, Allemagne (10043): water temperature: 17.08.2019 15:00:00 - 23.08.2019 15:00:00 (CEST)Fehmarnbelt/Grosstonne, Allemagne (10043): Vitesse du vent: 17.08.2019 15:00:00 - 23.08.2019 15:00:00 (CEST)Fehmarnbelt/Grosstonne, Allemagne (10043): Direction du vent: 17.08.2019 15:00:00 - 23.08.2019 15:00:00 (CEST)Fehmarnbelt/Grosstonne, Allemagne (10043): reduced air pressure: 17.08.2019 15:00:00 - 23.08.2019 15:00:00 (CEST)
Date & Time tt [°C] td [°C] tw [°C] ff [km/h] ff [knt] dd ppp [hPa]
23.08.2019 15:00:00 24,7 13,2 19,2 10 5 WSW 1026,0
23.08.2019 14:00:00 23,0 15,7 19,2 8 4 W 1026,3
23.08.2019 13:00:00 22,7 15,0 18,9 13 7 WSW 1026,3
23.08.2019 12:00:00 21,5 15,2 18,8 20 11 SW 1026,3
23.08.2019 11:00:00 20,7 14,2 18,7 24 13 WSW 1026,2
23.08.2019 10:00:00 20,2 14,0 18,7 25 13 WSW 1026,1
23.08.2019 09:00:00 20,4 13,5 18,6 23 12 SW 1025,8
23.08.2019 08:00:00 19,2 14,9 18,6 19 10 SSW 1025,3
23.08.2019 07:00:00 18,2 14,0 18,7 15 8 SSW 1025,1
23.08.2019 06:00:00 18,0 14,7 18,7 16 9 SSW 1025,0
23.08.2019 05:00:00 17,9 15,2 18,8 16 9 SSW 1025,0
23.08.2019 04:00:00 18,0 17,0 18,8 15 8 SW 1025,1
23.08.2019 03:00:00 18,0 16,2 18,7 7 4 SSW 1025,1
23.08.2019 02:00:00 18,0 15,2 18,8 7 4 SW 1025,2
23.08.2019 01:00:00 18,5 13,7 18,8 3 2 W 1025,1
23.08.2019 00:00:00 19,2 14,7 18,9 6 4 NW 1024,9
22.08.2019 23:00:00 19,7 14,4 18,9 22 12 NW 1024,9
22.08.2019 22:00:00 19,5 15,7 19,0 8 4 SW 1024,7
22.08.2019 21:00:00 19,7 16,2 19,0 7 4 SSE 1024,3
22.08.2019 20:00:00 20,5 15,4 19,0 8 4 W 1024,1
22.08.2019 19:00:00 22,4 16,0 19,0 1 1 WNW 1024,0
22.08.2019 18:00:00 23,5 14,2 19,0 13 7 WSW 1023,9
22.08.2019 17:00:00 23,7 15,0 19,0 14 7 WSW 1024,4
22.08.2019 16:00:00 23,7 14,2 18,9 17 9 WSW 1024,7
22.08.2019 15:00:00 23,7 12,2 18,9 20 11 SSW 1025,1
22.08.2019 14:00:00 22,7 11,7 18,6 24 13 S 1025,6
22.08.2019 13:00:00 21,9 12,5 18,5 23 13 S 1026,2
22.08.2019 12:00:00 21,2 13,2 18,4 25 13 S 1026,5
22.08.2019 11:00:00 20,7 12,2 18,3 24 13 S 1026,8
22.08.2019 10:00:00 19,7 13,2 18,1 23 13 S 1027,1
22.08.2019 09:00:00 19,2 13,2 18,0 24 13 S 1027,2
22.08.2019 08:00:00 17,9 14,5 17,9 21 11 S 1027,4
22.08.2019 07:00:00 17,0 14,2 17,9 21 11 S 1027,1
22.08.2019 06:00:00 16,7 14,7 18,0 21 11 S 1027,3
22.08.2019 05:00:00 16,7 14,2 18,1 19 10 S 1027,7
22.08.2019 04:00:00 16,7 12,5 18,1 16 9 SSW 1027,8
22.08.2019 03:00:00 16,7 13,0 18,1 15 8 S 1027,9
22.08.2019 02:00:00 17,0 13,0 18,1 13 7 SSW 1027,9
22.08.2019 01:00:00 17,0 13,5 18,2 13 7 SSW 1028,1
22.08.2019 00:00:00 17,5 13,7 18,2 16 8 SSW 1028,1
21.08.2019 23:00:00 18,0 13,2 18,3 23 12 WSW 1028,1
21.08.2019 22:00:00 17,7 13,5 18,4 19 10 SW 1027,9
21.08.2019 21:00:00 18,2 13,2 18,4 16 9 WSW 1027,7
21.08.2019 20:00:00 18,4 13,2 18,5 20 11 WSW 1027,6
21.08.2019 19:00:00 18,9 13,2 18,5 19 10 WSW 1027,6
21.08.2019 18:00:00 19,2 12,4 18,5 19 10 WSW 1027,7
21.08.2019 17:00:00 19,7 12,5 18,5 16 9 W 1027,5
21.08.2019 16:00:00 19,2 12,0 18,5 17 9 W 1027,3
21.08.2019 15:00:00 18,7 11,5 18,3 20 11 W 1027,2
21.08.2019 14:00:00 18,1 11,8 18,3 25 14 W 1027,4
21.08.2019 13:00:00 17,5 12,7 18,2 26 14 W 1027,1
21.08.2019 12:00:00 17,2 13,2 18,0 29 16 W 1026,9
21.08.2019 11:00:00 17,2 13,4 17,8 29 16 W 1026,6
21.08.2019 10:00:00 17,0 13,2 17,7 32 18 W 1026,2
21.08.2019 09:00:00 17,0 13,2 17,8 33 18 W 1025,9
21.08.2019 08:00:00 16,9 12,4 17,7 32 18 W 1025,6
21.08.2019 07:00:00 16,7 12,9 17,9 34 18 W 1025,1
21.08.2019 06:00:00 16,4 12,2 18,0 27 15 W 1024,8
21.08.2019 05:00:00 16,5 13,2 18,0 25 13 W 1024,5
21.08.2019 04:00:00 16,7 13,7 18,1 28 15 WSW 1024,2
21.08.2019 03:00:00 17,0 13,0 18,1 25 13 W 1023,9
21.08.2019 02:00:00 17,4 13,2 18,0 27 14 W 1023,9
21.08.2019 01:00:00 17,5 13,2 18,0 24 13 W 1023,7
21.08.2019 00:00:00 17,7 12,4 18,0 25 13 W 1023,6
20.08.2019 23:00:00 18,2 13,0 17,9 25 13 W 1023,1
20.08.2019 22:00:00 18,5 12,9 18,2 21 12 W 1022,9
20.08.2019 21:00:00 18,2 13,9 18,6 19 11 W 1022,5
20.08.2019 20:00:00 18,9 14,7 18,5 10 5 WSW 1022,0
20.08.2019 19:00:00 19,5 13,7 18,6 7 4 WSW 1021,8
20.08.2019 18:00:00 20,0 12,9 18,5 10 5 W 1021,4
20.08.2019 17:00:00 20,5 12,9 18,5 9 5 WNW 1021,4
20.08.2019 16:00:00 18,4 12,2 18,4 30 16 WNW 1021,1
20.08.2019 15:00:00 18,7 12,9 18,5 25 13 WNW 1020,8
20.08.2019 14:00:00 19,5 14,5 18,4 19 10 W 1020,7
20.08.2019 13:00:00 20,0 13,7 18,2 24 13 WSW 1020,4
20.08.2019 12:00:00 19,4 13,7 18,0 28 15 SW 1020,4
20.08.2019 11:00:00 17,9 13,0 17,9 34 18 SW 1019,9
20.08.2019 10:00:00 17,4 12,5 17,9 37 20 SW 1019,5
20.08.2019 09:00:00 17,4 12,5 18,0 40 21 WSW 1019,0
20.08.2019 08:00:00 17,0 13,5 18,1 22 12 SSW 1018,4
20.08.2019 07:00:00 16,5 13,0 18,1 33 18 SW 1018,1
20.08.2019 06:00:00 16,7 13,0 18,1 38 21 SW 1017,8
20.08.2019 05:00:00 16,5 13,2 18,1 26 14 SSW 1017,6
20.08.2019 04:00:00 16,0 12,5 18,1 15 8 S 1017,8
20.08.2019 03:00:00 16,5 13,2 18,1 18 10 SSW 1017,6
20.08.2019 02:00:00 17,0 13,2 18,1 26 14 SW 1017,4
20.08.2019 01:00:00 17,2 13,7 18,2 31 17 SW 1017,2
20.08.2019 00:00:00 17,4 13,2 18,3 36 20 SW 1017,0
19.08.2019 23:00:00 17,5 13,0 18,3 30 16 WSW 1016,7
19.08.2019 22:00:00 16,9 12,4 18,4 43 23 WSW 1016,5
19.08.2019 21:00:00 17,5 13,5 18,4 29 15 WSW 1016,3
19.08.2019 20:00:00 16,0 14,0 18,5 51 28 SW 1015,9
19.08.2019 19:00:00 17,2 13,5 18,5 25 13 SW 1015,4
19.08.2019 18:00:00 18,9 13,2 18,5 32 17 W 1014,9
19.08.2019 17:00:00 19,9 14,5 18,4 23 12 W 1014,6
19.08.2019 16:00:00 20,5 14,7 18,4 26 14 WSW 1014,0
19.08.2019 15:00:00 20,7 14,5 18,3 32 17 WSW 1013,5
19.08.2019 14:00:00 20,0 14,5 18,3 37 20 WSW 1013,0
19.08.2019 13:00:00 19,2 14,2 18,3 44 24 WSW 1012,4
19.08.2019 12:00:00 17,9 14,6 18,2 34 18 W 1011,9
19.08.2019 11:00:00 18,9 14,5 18,2 37 20 SW 1011,4
19.08.2019 10:00:00 17,7 14,5 18,2 42 23 SW 1011,2
19.08.2019 09:00:00 17,2 14,2 18,2 35 19 SW 1010,9
19.08.2019 08:00:00 16,9 14,7 18,2 26 14 SSW 1010,4
19.08.2019 07:00:00 16,5 15,2 18,2 35 19 SW 1010,1
19.08.2019 06:00:00 16,7 15,5 18,2 37 20 SW 1009,5
19.08.2019 05:00:00 17,0 15,4 18,1 34 18 SW 1009,1
19.08.2019 04:00:00 17,0 15,4 18,2 34 18 SW 1008,8
19.08.2019 03:00:00 17,2 14,5 18,2 34 19 WSW 1008,5
19.08.2019 02:00:00 17,2 14,6 18,2 40 21 WSW 1008,1
19.08.2019 01:00:00 17,5 15,0 18,3 37 20 W 1007,9
19.08.2019 00:00:00 17,5 14,7 18,2 36 19 W 1007,5
18.08.2019 23:00:00 17,5 13,7 18,3 33 18 W 1007,2
18.08.2019 22:00:00 17,5 13,9 18,4 37 20 W 1006,4
18.08.2019 21:00:00 18,0 13,7 18,2 36 19 W 1005,5
18.08.2019 20:00:00 17,5 14,0 18,3 32 18 W 1005,0
18.08.2019 19:00:00 17,5 14,4 18,4 32 17 W 1004,6
18.08.2019 18:00:00 17,2 14,7 18,4 29 15 W 1004,6
18.08.2019 17:00:00 16,2 15,2 18,3 23 13 W 1004,4
18.08.2019 16:00:00 16,5 15,0 18,3 14 8 SW 1004,1
18.08.2019 15:00:00 18,9 14,9 18,3 6 3 W 1003,9
18.08.2019 14:00:00 18,5 15,2 18,2 16 8 W 1004,5
18.08.2019 13:00:00 18,7 15,5 18,2 14 8 WSW 1004,3
18.08.2019 12:00:00 18,9 16,0 18,2 17 9 SW 1004,9
18.08.2019 11:00:00 18,5 15,5 18,2 13 7 WSW 1005,1
18.08.2019 10:00:00 18,2 16,0 18,2 22 12 SW 1005,2
18.08.2019 09:00:00 17,7 16,7 18,2 13 7 SSW 1005,2
18.08.2019 08:00:00 17,7 16,7 18,2 12 7 SSW 1005,3
18.08.2019 07:00:00 17,7 16,7 18,2 18 10 SSW 1005,3
18.08.2019 06:00:00 17,9 16,7 18,2 23 12 SW 1005,0
18.08.2019 05:00:00 18,0 17,2 18,3 13 7 SSW 1005,5
18.08.2019 04:00:00 18,2 16,5 18,4 18 10 SW 1005,7
18.08.2019 03:00:00 18,2 15,7 18,5 27 15 SW 1005,9
18.08.2019 02:00:00 18,0 16,2 18,5 20 11 SSW 1006,0
18.08.2019 01:00:00 18,0 17,0 18,4 27 15 SSW 1006,3
18.08.2019 00:00:00 18,2 17,2 18,5 23 12 SSW 1006,2
17.08.2019 23:00:00 18,2 17,2 18,6 18 10 S 1006,3
17.08.2019 22:00:00 18,0 17,5 18,6 16 9 S 1006,5
17.08.2019 21:00:00 18,5 17,5 18,6 17 9 SSW 1006,6
17.08.2019 20:00:00 18,5 17,4 18,7 27 15 SSW 1006,7
17.08.2019 19:00:00 18,2 17,5 18,6 28 15 SSW 1006,7
17.08.2019 18:00:00 19,2 17,2 18,6 23 12 SSW 1006,8
17.08.2019 17:00:00 19,2 17,0 18,6 37 20 SW 1006,7
17.08.2019 16:00:00 19,4 16,9 18,6 25 14 SSW 1006,6
17.08.2019 15:00:00 19,9 15,7 18,6 29 16 SSW 1006,4

tt = Température de l'air
td = dewpoint
tw = water temperature
ff = Vitesse du vent
dd = Direction du vent
ppp = reduced air pressure

stations d'obs. à proximité